Terminal Aerodrome Forecast
Issued by NWS

Home | Current Version | Previous Version | Text Only | Print | Product List | Glossary On
Versions: 1 2 3 4 5 6 7 8 9 10 11 12 13
000
FTUS46 KSEW 290541
TAFBLI
TAF
KBLI 290541Z 2906/3006 VRB03KT P6SM BKN100 OVC150
     FM291300 11008KT P6SM BKN060 OVC100
     FM291500 13010KT P6SM -RA BKN025 OVC040
     FM291800 16020G30KT P6SM -RA BKN025 OVC040
     FM292100 18020G30KT P6SM -SHRA SCT030 BKN040 OVC050
     FM300200 18014KT P6SM -RA BKN028 OVC040=

USA.gov is the U.S. government's official web portal to all federal, state and local government web resources and services.